VATSIM Germany Forum

Zurück   VATSIM Germany Forum > Community > Events

Events Ankündigungen von Events, Checkouts, TV-Terminen, usw.

Antwort
 
LinkBack Themen-Optionen Ansicht
Alt 2016-02-22, 14:26   #31 (permalink)
 
Benutzerbild von Thomas Paul
 
Registriert seit: 2014-08-12
Ort: Dortmund (EDLW)
Beiträge: 708
Danke erteilt: 213
375 Danksagungen in 211 Beiträgen erhalten
Standard

Auch heute öffnen wir für euch Düsseldorf International.
Schaut zwischen 1800z und 2100z rein und genießt einen Flug zur oder von der Rheinmetropole.

Trotz Wind und Regen freuen wir uns über jeden, der vorbeischaut.
Egal ob VFR oder IFR, stellt die Lotsen vor Herausforderungen.

Bis heute Abend...
__________________
Thomas Paul ist offline   Mit Zitat antworten
Alt 2016-02-29, 11:16   #32 (permalink)
 
Benutzerbild von Thomas Paul
 
Registriert seit: 2014-08-12
Ort: Dortmund (EDLW)
Beiträge: 708
Danke erteilt: 213
375 Danksagungen in 211 Beiträgen erhalten
Standard

Same procedere as every week... Aus dem Newsticker...

--- START ---

Heute Abend... Flug von oder nach Düsseldorf...
Wetter ist gut... Wir freuen uns auf euch... 1800z-2100z...
VFR... IFR... Egal... Bis heute Abend...

--- STOP ---
__________________
Thomas Paul ist offline   Mit Zitat antworten
Danksagungen
Alt 2016-03-07, 12:11   #33 (permalink)
 
Benutzerbild von Thomas Paul
 
Registriert seit: 2014-08-12
Ort: Dortmund (EDLW)
Beiträge: 708
Danke erteilt: 213
375 Danksagungen in 211 Beiträgen erhalten
Standard

Es wird spannend heute in Düsseldorf.
Das Wetter macht heute mal wieder was es will, also seid auf "nicht alltägliche" Prozeduren eingestellt...
Checkt das CAT II ILS und Stürzt euch in den Nebel.

Wir freuen uns auf euch zwischen 1800z und 2100z....

Zitat:
METAR: EDDL 071050Z 15004KT 110V190 9999 SCT014 BKN016 03/00 Q1004 NOSIG

TAF: EDDL 070632Z 0706/0812 VRB03KT 8000 BKN015
TEMPO 0706/0718 4000 SHRASN BKN012TCU
PROB30 TEMPO 0706/0709 2000 SHSN BKN004CB
PROB30 TEMPO 0709/0716 28010KT TSGS BKN009CB
TEMPO 0803/0810 2500 BR BKN008
PROB30 TEMPO 0805/0807 0600 FG
__________________
Thomas Paul ist offline   Mit Zitat antworten
Alt 2016-03-21, 16:55   #34 (permalink)
VATSIM Germany RG Düsseldorf Deputy
 
Registriert seit: 2013-12-20
Ort: Nahe DOMEG
Alter: 18
Beiträge: 1.001
Danke erteilt: 590
669 Danksagungen in 384 Beiträgen erhalten
Standard

Auch heute ist Düsseldorf wieder vom Boden bis hoch zur Dünnluft besetzt.

Bis später auf der Frequenz

Code:
METAR: EDDL 211520Z 30007KT 9999 FEW035 BKN050 09/02 Q1018 NOSIG

TAF: EDDL 211100Z 2112/2218 27007KT 9999 BKN035 BECMG 2201/2204 BKN013 PROB30 TEMPO 2204/2208 4500 -RA BR BKN009 BECMG 2208/2210 33007KT BKN035
Lars Tönning ist offline   Mit Zitat antworten
Danksagungen
Alt 2016-04-04, 16:18   #35 (permalink)
VATSIM Germany RG Düsseldorf Deputy
 
Registriert seit: 2013-12-20
Ort: Nahe DOMEG
Alter: 18
Beiträge: 1.001
Danke erteilt: 590
669 Danksagungen in 384 Beiträgen erhalten
Standard

Heute Abend besetzen wir ab 17z wieder Düsseldorf.

Egal ob IFR mit Heavy oder VFR mit UL, wir freuen uns auf euch!

Zitat:
METAR: EDDL 041350Z 24014KT 9999 FEW038 SCT110 16/06 Q1007 NOSIG

TAF:EDDL 041100Z 0412/0518 22010KT 9999 SCT030 TEMPO 0412/0415 22015G25KT BECMG 0416/0419 13005KT TEMPO 0501/0507 RA BECMG 0510/0512 23008KT TEMPO 0512/0518 SHRA BKN012TCU
Lars Tönning ist offline   Mit Zitat antworten
Danksagungen
Alt 2016-04-04, 20:57   #36 (permalink)
 
Benutzerbild von Leonardo Grani
 
Registriert seit: 2011-06-29
Ort: EDWO <-> OSN
Alter: 39
Beiträge: 603
Danke erteilt: 1.036
445 Danksagungen in 282 Beiträgen erhalten
Standard

20:55 lcl am Onlineday und mein gesamter Langen Nord Luftraum ist leer.
Leonardo Grani ist offline   Mit Zitat antworten
Alt 2016-04-05, 12:33   #37 (permalink)
 
Benutzerbild von Michael Steffen
 
Registriert seit: 2013-08-11
Ort: 30 km South EDDH
Beiträge: 2.403
Danke erteilt: 1.595
1.668 Danksagungen in 1.022 Beiträgen erhalten
Standard

ooooh
da werden sie demnächst geholfen
Michael Steffen ist offline   Mit Zitat antworten
Danksagungen
Alt 2016-04-05, 12:41   #38 (permalink)
 
Benutzerbild von Leonardo Grani
 
Registriert seit: 2011-06-29
Ort: EDWO <-> OSN
Alter: 39
Beiträge: 603
Danke erteilt: 1.036
445 Danksagungen in 282 Beiträgen erhalten
Standard

Hätt ich mal besser die Klappe gehalten. 😁
__________________
Leonardo Grani ist offline   Mit Zitat antworten
Danksagungen
Alt 2016-04-18, 12:44   #39 (permalink)
 
Benutzerbild von Thomas Paul
 
Registriert seit: 2014-08-12
Ort: Dortmund (EDLW)
Beiträge: 708
Danke erteilt: 213
375 Danksagungen in 211 Beiträgen erhalten
Standard

Auch heute Abend steht Düsseldorf international wieder für euch zur Verfügung. Als besonderen Leckerbissen findet auf Langen Radar (EDGG_P_CTR) ein CPT statt. Kommt nach Düsseldorf und besucht unseren Luftraum. Egal ob VFR oder IFR, alles ist willkommen.

Helft Leonardo seine ATC Ausbildung heute mit einem bestandenen CPT abzuschliessen.

Das Wetter lässt heute ja alles Erdenkliche zu.

An dieser Stelle schon jetzt viel Spaß und viel Erfolg Leonardo.

Zitat:
EDDL 180500Z 1806/1912 VRB03KT 9999 FEW020
BECMG 1808/1811 25010KT
TEMPO 1818/1823 23005KT

Gesendet von iPad mit Tapatalk
__________________
Thomas Paul ist offline   Mit Zitat antworten
Danksagungen
Alt 2016-05-02, 08:43   #40 (permalink)
 
Benutzerbild von Thomas Paul
 
Registriert seit: 2014-08-12
Ort: Dortmund (EDLW)
Beiträge: 708
Danke erteilt: 213
375 Danksagungen in 211 Beiträgen erhalten
Standard

Hallo liebe Piloten und Pilotinnen,

da heute Montag ist, bieten wir euch erneut Service in Düsseldorf an.
Der Frühling ist zurückgekehrt und macht vieles möglich.
Also plant eure Flüge doch heute von oder nach Düsseldorf...

Das Wetter lässt alles zu, also egal ob VFR oder IFR schaut vorbei....

Zitat:
TAF: EDDL 020500Z 0206/0312 VRB02KT CAVOK
BECMG 0209/0212 23005KT TEMPO 0218/0302 VRB02KT
BECMG 0304/0308 31010KT TEMPO 0304/0306 SHRA BKN012TCU
__________________
Thomas Paul ist offline   Mit Zitat antworten
Antwort

  VATSIM Germany Forum > Community > Events

Stichworte
düsseldorf, monday, montag, onlineday


Themen-Optionen
Ansicht

Forumregeln
Es ist dir nicht erlaubt, neue Themen zu verfassen.
Es ist dir nicht erlaubt, auf Beiträge zu antworten.
Es ist dir nicht erlaubt, Anhänge hochzuladen.
Es ist dir nicht erlaubt, deine Beiträge zu bearbeiten.

BB-Code ist an.
Smileys sind an.
[IMG] Code ist an.
HTML-Code ist aus.
Trackbacks are an
Pingbacks are an
Refbacks are an



Alle Zeitangaben in WEZ +2. Es ist jetzt 02:55 Uhr.


Powered by vBulletin® Version 3.8.4 (Deutsch)
Copyright ©2000 - 2018, Jelsoft Enterprises Ltd.
Template-Modifikationen durch TMS
© 2006 - 2018 vatsim-germany.org